Time;durP1;ratioP1;P1;durP2;ratioP2;P2;SDS_P1;SDS_P2;PMS_P1;PMS_P2;Temp;Humidity;BMP_temperature;BMP_pressure;BME280_temperature;BME280_humidity;BME280_pressure;Samples;Min_cycle;Max_cycle;Signal;HPM_P1;HPM_P2
2021/11/17 02:27:14;;;;;;;40.47;19.80;;;;;;;8.08;100.00;99460.47;5013761;28;20049;-64
2021/11/17 02:30:23;;;;;;;39.60;18.45;;;;;;;8.09;100.00;99467.25;5013927;28;20136;-64
2021/11/17 02:33:23;;;;;;;40.28;19.58;;;;;;;8.00;100.00;99476.47;5013562;28;20073;-64
2021/11/17 02:36:10;;;;;;;41.92;18.95;;;;;;;8.00;100.00;99473.06;5012859;28;20052;-63
2021/11/17 02:39:06;;;;;;;40.17;19.23;;;;;;;8.00;100.00;99473.91;5013854;28;20053;-64
2021/11/17 02:41:56;;;;;;;43.90;19.77;;;;;;;8.08;100.00;99461.31;5013976;28;20075;-64
2021/11/17 02:44:59;;;;;;;45.42;20.20;;;;;;;8.14;100.00;99453.13;5013752;28;20141;-64
2021/11/17 02:48:16;;;;;;;44.47;19.95;;;;;;;8.07;100.00;99456.25;5013740;28;20093;-63
2021/11/17 02:51:14;;;;;;;41.25;20.35;;;;;;;8.06;100.00;99459.75;5009153;28;20044;-64
2021/11/17 02:54:35;;;;;;;44.70;19.88;;;;;;;8.07;100.00;99451.09;5012964;28;20044;-64
2021/11/17 02:57:34;;;;;;;43.17;19.58;;;;;;;8.01;100.00;99438.63;5009539;28;20542;-64
2021/11/17 03:00:27;;;;;;;45.83;20.23;;;;;;;7.97;100.00;99442.34;5013266;28;20049;-64
2021/11/17 03:03:38;;;;;;;42.30;18.67;;;;;;;7.90;100.00;99441.13;5013634;28;20069;-64
2021/11/17 03:06:40;;;;;;;48.47;19.10;;;;;;;7.90;100.00;99449.72;5013553;28;20044;-64
2021/11/17 03:09:24;;;;;;;45.63;19.58;;;;;;;7.76;100.00;99449.03;5013540;28;20045;-62
2021/11/17 03:12:34;;;;;;;44.72;19.85;;;;;;;7.84;100.00;99446.75;5013054;28;20541;-63
2021/11/17 03:15:45;;;;;;;40.28;19.27;;;;;;;7.98;100.00;99447.41;5013202;28;20095;-64
2021/11/17 03:18:40;;;;;;;44.30;20.20;;;;;;;7.82;100.00;99452.00;5013181;28;20040;-64
2021/11/17 03:21:42;;;;;;;46.58;20.02;;;;;;;7.86;100.00;99443.09;5013294;28;20099;-64
2021/11/17 03:24:35;;;;;;;45.65;20.50;;;;;;;7.89;100.00;99447.22;5013410;28;20049;-64
2021/11/17 03:28:03;;;;;;;46.77;19.87;;;;;;;7.81;100.00;99449.50;5013095;28;20465;-64
2021/11/17 03:31:02;;;;;;;39.78;18.88;;;;;;;7.97;100.00;99450.09;5012304;28;20263;-64
2021/11/17 03:34:22;;;;;;;42.45;18.02;;;;;;;7.85;100.00;99450.97;5013783;28;20096;-64
2021/11/17 03:37:27;;;;;;;37.60;17.20;;;;;;;7.76;100.00;99446.44;5017089;28;20049;-64
2021/11/17 03:40:14;;;;;;;37.53;18.17;;;;;;;7.85;100.00;99451.78;5017026;28;20402;-64
2021/11/17 03:43:16;;;;;;;41.90;19.08;;;;;;;7.96;100.00;99448.44;5016867;28;20121;-64
2021/11/17 03:46:12;;;;;;;37.08;17.70;;;;;;;7.97;100.00;99450.09;5016623;28;20168;-64
2021/11/17 03:49:15;;;;;;;39.25;18.88;;;;;;;7.90;100.00;99459.19;5016869;28;20045;-63
2021/11/17 03:52:25;;;;;;;39.08;18.45;;;;;;;7.89;100.00;99462.69;5016458;28;20136;-63
2021/11/17 03:56:01;;;;;;;35.72;16.38;;;;;;;7.95;100.00;99462.28;5001893;28;20625;-64
2021/11/17 03:59:20;;;;;;;38.88;17.55;;;;;;;7.85;100.00;99466.44;5007374;28;20408;-63
2021/11/17 04:02:25;;;;;;;37.45;16.75;;;;;;;7.88;100.00;99461.03;5015296;28;20213;-64
2021/11/17 04:05:34;;;;;;;37.38;16.35;;;;;;;7.87;100.00;99474.88;5016585;28;20121;-64
2021/11/17 04:08:56;;;;;;;37.95;17.23;;;;;;;7.90;100.00;99464.34;5016511;28;20133;-63
2021/11/17 04:12:17;;;;;;;33.88;15.88;;;;;;;8.01;100.00;99470.38;5132466;22;20072;-66
2021/11/17 04:15:20;;;;;;;32.28;15.07;;;;;;;7.94;100.00;99465.78;5023878;28;20509;-66
2021/11/17 04:18:26;;;;;;;34.35;17.23;;;;;;;8.02;100.00;99463.47;5036335;28;20099;-67
2021/11/17 04:21:25;;;;;;;35.70;17.05;;;;;;;8.08;100.00;99461.31;5021257;28;20134;-66
2021/11/17 04:24:31;;;;;;;33.78;16.17;;;;;;;8.11;100.00;99462.81;5035985;28;20084;-66
2021/11/17 04:27:34;;;;;;;33.90;15.10;;;;;;;8.08;100.00;99465.63;5035728;28;20423;-67
2021/11/17 04:30:50;;;;;;;31.52;14.27;;;;;;;7.95;100.00;99470.00;5021726;28;20474;-66
2021/11/17 04:34:02;;;;;;;35.85;13.95;;;;;;;7.86;100.00;99478.38;5035710;28;20564;-67
2021/11/17 04:37:15;;;;;;;34.33;15.75;;;;;;;7.98;100.00;99474.94;5020786;28;20472;-66
2021/11/17 04:40:37;;;;;;;36.00;17.35;;;;;;;7.96;100.00;99475.03;5026340;28;20040;-67
2021/11/17 04:43:34;;;;;;;33.75;14.95;;;;;;;7.90;100.00;99474.63;5035447;28;20602;-66
2021/11/17 04:46:40;;;;;;;34.05;15.15;;;;;;;7.92;100.00;99481.34;5035278;28;20041;-67
2021/11/17 04:49:33;;;;;;;31.60;14.15;;;;;;;7.93;100.00;99477.84;5020277;28;20461;-67
2021/11/17 04:52:27;;;;;;;35.35;17.10;;;;;;;7.86;100.00;99483.53;5020214;28;20130;-67
2021/11/17 04:55:36;;;;;;;34.05;14.43;;;;;;;7.87;100.00;99480.03;5035659;28;20045;-66
2021/11/17 04:58:30;;;;;;;35.45;16.60;;;;;;;7.83;100.00;99489.72;5020307;28;20402;-67
2021/11/17 05:01:20;;;;;;;;;;;;;;;7.90;100.00;99482.38;5035378;28;20052;-67
2021/11/17 05:04:30;;;;;;;34.53;16.02;;;;;;;7.97;100.00;99481.84;5020232;28;19920;-66
2021/11/17 05:07:20;;;;;;;36.65;15.75;;;;;;;7.85;100.00;99484.47;5007300;28;20048;-66
2021/11/17 05:10:04;;;;;;;32.65;14.82;;;;;;;7.89;100.00;99489.31;5035139;28;20055;-67
2021/11/17 05:13:04;;;;;;;34.28;15.68;;;;;;;7.85;100.00;99494.78;5034657;28;20508;-67
2021/11/17 05:16:09;;;;;;;31.60;15.02;;;;;;;7.87;100.00;99495.47;5035057;28;20048;-67
2021/11/17 05:19:13;;;;;;;29.60;13.65;;;;;;;7.81;100.00;99489.00;5034965;28;20043;-67
2021/11/17 05:21:57;;;;;;;29.30;14.15;;;;;;;7.84;100.00;99490.56;4993896;28;20048;-67
2021/11/17 05:24:53;;;;;;;27.30;13.38;;;;;;;7.74;100.00;99490.34;5034901;28;20052;-67
2021/11/17 05:27:43;;;;;;;29.65;13.57;;;;;;;7.80;100.00;99501.97;5035013;28;20187;-67
2021/11/17 05:30:36;;;;;;;28.83;13.15;;;;;;;7.80;100.00;99499.41;5034711;28;20057;-67
2021/11/17 05:33:42;;;;;;;33.70;14.13;;;;;;;7.76;100.00;99503.94;5034292;28;20049;-67
2021/11/17 05:36:44;;;;;;;33.35;14.00;;;;;;;7.83;100.00;99505.19;5019415;28;20126;-67
2021/11/17 05:40:10;;;;;;;26.83;13.00;;;;;;;7.83;100.00;99504.38;5034259;28;20541;-67
2021/11/17 05:42:59;;;;;;;;;;;;;;;7.80;100.00;99505.41;4935312;29;20042;-67
2021/11/17 05:45:55;;;;;;;26.52;10.82;;;;;;;7.77;100.00;99509.94;4921533;29;19969;-67
2021/11/17 05:49:05;;;;;;;23.98;11.65;;;;;;;7.80;100.00;99514.88;5032188;28;20617;-66
2021/11/17 05:51:59;;;;;;;26.58;11.40;;;;;;;7.78;100.00;99527.03;5019120;28;20040;-67
2021/11/17 05:55:10;;;;;;;23.35;11.18;;;;;;;7.78;100.00;99514.16;5019687;28;20529;-67
2021/11/17 05:58:07;;;;;;;21.80;10.43;;;;;;;7.74;100.00;99525.63;5019938;28;20052;-66
2021/11/17 06:01:16;;;;;;;25.30;10.63;;;;;;;7.80;100.00;99525.16;5019206;28;20096;-67
2021/11/17 06:04:01;;;;;;;21.15;9.32;;;;;;;7.72;100.00;99527.47;5020141;28;20040;-67
2021/11/17 06:06:45;;;;;;;22.90;10.25;;;;;;;7.71;100.00;99518.06;5033882;28;20171;-66
2021/11/17 06:09:29;;;;;;;22.00;10.45;;;;;;;7.70;100.00;99524.16;5034104;28;20080;-67
2021/11/17 06:12:14;;;;;;;;;;;;;;;7.72;100.00;99528.28;5019051;28;20049;-66
2021/11/17 06:14:58;;;;;;;24.45;9.30;;;;;;;7.64;100.00;99534.91;5018714;28;19924;-66
2021/11/17 06:17:48;;;;;;;23.13;10.00;;;;;;;7.59;100.00;99542.09;5019267;28;20529;-67
2021/11/17 06:20:32;;;;;;;24.95;11.02;;;;;;;7.65;100.00;99545.06;5018687;28;20068;-66
2021/11/17 06:23:21;;;;;;;24.27;11.40;;;;;;;7.77;100.00;99535.69;5004896;28;20090;-67
2021/11/17 06:26:08;;;;;;;25.52;11.18;;;;;;;7.82;100.00;99543.94;5033474;28;20049;-67
2021/11/17 06:29:05;;;;;;;26.33;11.90;;;;;;;7.83;100.00;99543.03;5018974;28;20056;-67
2021/11/17 06:31:50;;;;;;;26.20;11.25;;;;;;;7.70;100.00;99555.06;5004434;28;20095;-66
2021/11/17 06:34:38;;;;;;;25.55;10.95;;;;;;;7.64;100.00;99556.31;5018495;28;20056;-67
2021/11/17 06:37:24;;;;;;;25.67;10.68;;;;;;;7.76;100.00;99554.66;5033616;28;20052;-66
2021/11/17 06:40:13;;;;;;;24.13;10.55;;;;;;;7.84;100.00;99562.72;5004488;28;20098;-67
2021/11/17 06:42:59;;;;;;;22.90;9.50;;;;;;;7.74;100.00;99577.16;5018501;28;20474;-67
2021/11/17 06:45:52;;;;;;;22.23;11.05;;;;;;;7.76;100.00;99570.94;5033506;28;20084;-66
2021/11/17 06:48:36;;;;;;;22.27;10.68;;;;;;;7.69;100.00;99574.03;5018605;28;20099;-67
2021/11/17 06:51:20;;;;;;;23.95;10.00;;;;;;;7.75;100.00;99579.59;5018649;28;20132;-66
2021/11/17 06:54:04;;;;;;;18.13;9.15;;;;;;;7.75;100.00;99581.38;5004732;28;20037;-66
2021/11/17 06:56:51;;;;;;;23.98;9.80;;;;;;;7.82;100.00;99586.00;5033188;28;20056;-66
2021/11/17 06:59:35;;;;;;;19.73;9.70;;;;;;;7.83;100.00;99584.25;5033637;28;20405;-67
2021/11/17 07:02:19;;;;;;;25.70;11.10;;;;;;;7.79;100.00;99587.94;5033287;28;20099;-67
2021/11/17 07:05:04;;;;;;;19.05;9.85;;;;;;;7.70;100.00;99596.28;5033463;28;20047;-67
2021/11/17 07:07:49;;;;;;;19.00;9.60;;;;;;;7.72;100.00;99602.19;5033591;28;20103;-67
2021/11/17 07:10:35;;;;;;;20.30;9.00;;;;;;;7.85;100.00;99606.38;5022475;28;20060;-67
2021/11/17 07:13:19;;;;;;;19.30;9.18;;;;;;;7.81;100.00;99619.59;5022014;28;20094;-67
2021/11/17 07:16:04;;;;;;;20.52;9.80;;;;;;;7.83;100.00;99612.59;5022328;28;20052;-67
2021/11/17 07:18:48;;;;;;;18.90;9.35;;;;;;;7.80;100.00;99617.94;5022185;28;20505;-67
2021/11/17 07:21:31;;;;;;;17.48;8.70;;;;;;;7.66;100.00;99615.47;5022406;28;20095;-67
2021/11/17 07:24:15;;;;;;;15.13;7.97;;;;;;;7.76;100.00;99617.31;5037033;28;20204;-66
2021/11/17 07:26:59;;;;;;;;;;;;;;;7.69;100.00;99618.69;5022505;28;20492;-67
2021/11/17 07:29:43;;;;;;;14.03;6.83;;;;;;;7.68;100.00;99622.19;5022123;28;19983;-67
2021/11/17 07:32:28;;;;;;;14.55;7.30;;;;;;;7.63;100.00;99626.81;5021855;28;20293;-67
2021/11/17 07:35:12;;;;;;;14.02;6.93;;;;;;;7.81;100.00;99637.63;5022372;28;20053;-67
2021/11/17 07:38:03;;;;;;;17.42;8.00;;;;;;;7.90;100.00;99644.72;5021988;28;20513;-67
2021/11/17 07:40:48;;;;;;;14.38;7.43;;;;;;;7.94;100.00;99646.19;5022794;28;20098;-67
2021/11/17 07:43:32;;;;;;;12.23;7.05;;;;;;;7.92;100.00;99650.59;5007938;28;20549;-66
2021/11/17 07:46:16;;;;;;;15.68;7.70;;;;;;;7.90;100.00;99652.47;5036993;28;20091;-67
2021/11/17 07:49:00;;;;;;;13.48;6.93;;;;;;;7.78;100.00;99655.88;5021639;28;20052;-67
2021/11/17 07:51:45;;;;;;;10.70;5.80;;;;;;;7.78;100.00;99667.03;5021469;28;20048;-67
2021/11/17 07:54:29;;;;;;;7.88;4.07;;;;;;;7.60;100.00;99664.81;5021312;28;20194;-66
2021/11/17 07:57:13;;;;;;;9.05;5.32;;;;;;;7.64;100.00;99668.84;5036617;28;20132;-67
2021/11/17 07:59:58;;;;;;;10.52;4.75;;;;;;;7.67;100.00;99676.38;5021221;28;20052;-66
2021/11/17 08:02:41;;;;;;;13.07;4.72;;;;;;;7.74;100.00;99680.19;5021077;28;20047;-66
2021/11/17 08:05:26;;;;;;;6.22;3.90;;;;;;;7.72;100.00;99676.91;5021221;28;20461;-66
2021/11/17 08:08:10;;;;;;;8.98;4.53;;;;;;;7.65;100.00;99671.31;5021440;28;20063;-67
2021/11/17 08:10:55;;;;;;;;;;;;;;;7.70;100.00;99674.44;5021693;28;20525;-66
2021/11/17 08:13:39;;;;;;;4.40;3.20;;;;;;;7.69;100.00;99669.38;5021058;28;19943;-67
2021/11/17 08:16:23;;;;;;;7.07;4.03;;;;;;;7.75;100.00;99667.19;5021147;28;20083;-66
2021/11/17 08:19:07;;;;;;;8.27;4.28;;;;;;;7.83;100.00;99669.28;5007334;28;20064;-67
2021/11/17 08:21:51;;;;;;;5.53;3.30;;;;;;;7.89;100.00;99663.72;5006829;28;20418;-67
2021/11/17 08:24:39;;;;;;;6.03;3.85;;;;;;;7.82;100.00;99672.78;5035786;28;20411;-67
2021/11/17 08:27:23;;;;;;;7.93;3.97;;;;;;;7.93;100.00;99673.72;5021017;28;20055;-67
2021/11/17 08:30:10;;;;;;;11.63;5.05;;;;;;;7.76;100.00;99673.19;5020934;28;20058;-66
2021/11/17 08:32:54;;;;;;;10.35;5.32;;;;;;;7.86;100.00;99679.38;5006680;28;20048;-66
2021/11/17 08:35:39;;;;;;;9.32;4.85;;;;;;;8.01;100.00;99675.75;5020821;28;20102;-66
2021/11/17 08:38:23;;;;;;;12.05;4.40;;;;;;;8.05;100.00;99679.81;5007186;28;20045;-65
2021/11/17 08:41:09;;;;;;;11.52;4.43;;;;;;;8.05;100.00;99679.81;5007173;28;20110;-66
2021/11/17 08:43:54;;;;;;;5.85;3.97;;;;;;;8.05;100.00;99682.38;5006910;28;20509;-67
2021/11/17 08:46:38;;;;;;;9.88;5.15;;;;;;;7.93;100.00;99671.13;5020572;28;20052;-67
2021/11/17 08:49:22;;;;;;;7.82;4.50;;;;;;;7.91;100.00;99682.47;5020481;28;20171;-66
2021/11/17 08:52:07;;;;;;;7.85;4.55;;;;;;;8.12;100.00;99678.44;5020250;28;20044;-66
2021/11/17 08:54:51;;;;;;;7.55;4.30;;;;;;;8.25;100.00;99687.03;5035376;28;20060;-66
2021/11/17 08:57:37;;;;;;;6.65;4.45;;;;;;;8.24;100.00;99690.56;5020187;28;20055;-66
2021/11/17 09:00:25;;;;;;;6.53;4.45;;;;;;;8.33;100.00;99690.75;5020031;28;20053;-66
2021/11/17 09:03:10;;;;;;;7.88;4.32;;;;;;;8.21;100.00;99691.59;5006426;28;20494;-66
2021/11/17 09:05:58;;;;;;;7.55;4.50;;;;;;;8.35;100.00;99690.66;5020054;28;20115;-67
2021/11/17 09:08:42;;;;;;;8.15;4.18;;;;;;;8.38;100.00;99703.31;5019618;28;20040;-66
2021/11/17 09:11:26;;;;;;;7.53;3.78;;;;;;;8.41;100.00;99708.25;5019131;28;20053;-66
2021/11/17 09:14:10;;;;;;;;;;;;;;;8.22;100.00;99703.53;5006133;28;20124;-64
2021/11/17 09:16:54;;;;;;;8.75;3.85;;;;;;;8.34;100.00;99704.47;5019256;28;19924;-66
2021/11/17 09:19:38;;;;;;;7.78;4.10;;;;;;;8.44;100.00;99713.22;5019115;28;20091;-65
2021/11/17 09:22:22;;;;;;;5.32;3.63;;;;;;;8.36;100.00;99716.31;5019070;28;20437;-66
2021/11/17 09:25:08;;;;;;;6.85;4.28;;;;;;;8.21;100.00;99712.22;5019485;28;20049;-66
2021/11/17 09:27:52;;;;;;;6.03;3.42;;;;;;;8.30;100.00;99713.34;5018992;28;20052;-65
2021/11/17 09:30:39;;;;;;;6.10;3.28;;;;;;;8.16;100.00;99723.72;5005229;28;20049;-67
2021/11/17 09:33:25;;;;;;;6.30;3.60;;;;;;;8.13;100.00;99719.59;5018906;28;20048;-63
2021/11/17 09:36:09;;;;;;;4.50;2.97;;;;;;;8.24;100.00;99716.34;5005232;28;20151;-67
2021/11/17 09:38:55;;;;;;;6.72;3.45;;;;;;;8.34;100.00;99723.34;5018940;28;20051;-67
2021/11/17 09:41:43;;;;;;;5.07;3.22;;;;;;;8.48;99.40;99730.13;5019269;28;20060;-67
2021/11/17 09:44:32;;;;;;;4.95;3.08;;;;;;;8.67;100.00;99725.38;5019103;28;20163;-67
2021/11/17 09:47:20;;;;;;;6.25;3.33;;;;;;;8.51;96.11;99722.19;5005595;28;20056;-67
2021/11/17 09:50:20;;;;;;;4.78;3.20;;;;;;;8.57;98.29;99724.34;5018949;28;20124;-67
2021/11/17 09:53:29;;;;;;;5.55;3.03;;;;;;;8.67;94.57;99730.53;5033703;28;20133;-68
2021/11/17 09:56:30;;;;;;;3.95;2.90;;;;;;;8.92;94.24;99730.47;5018670;28;20470;-67
2021/11/17 09:59:32;;;;;;;3.13;2.28;;;;;;;8.89;92.83;99730.69;5004950;28;20521;-68
2021/11/17 10:02:20;;;;;;;3.28;2.47;;;;;;;8.92;92.59;99731.28;5004571;28;20044;-67
2021/11/17 10:05:10;;;;;;;3.35;2.30;;;;;;;9.01;91.77;99729.81;5018672;28;20152;-66
2021/11/17 10:08:29;;;;;;;1.77;1.50;;;;;;;9.08;91.40;99738.78;5004488;28;20044;-67
2021/11/17 10:11:47;;;;;;;3.13;1.75;;;;;;;9.16;89.66;99731.31;5022529;28;20052;-68
2021/11/17 10:14:43;;;;;;;3.17;1.48;;;;;;;9.47;90.13;99733.38;5021870;28;20095;-67
2021/11/17 10:17:45;;;;;;;1.67;1.30;;;;;;;9.60;87.40;99747.03;5054592;22;20074;-64
2021/11/17 10:20:39;;;;;;;4.50;1.92;;;;;;;9.49;86.54;99737.47;5026528;28;20522;-64
2021/11/17 10:23:26;;;;;;;3.05;1.88;;;;;;;9.44;86.55;99738.72;5013741;28;20510;-64
2021/11/17 10:26:13;;;;;;;2.45;1.67;;;;;;;9.36;86.51;99741.06;5012549;28;20056;-64
2021/11/17 10:29:05;;;;;;;2.72;1.98;;;;;;;9.36;88.37;99743.66;5012262;28;20133;-64
2021/11/17 10:31:53;;;;;;;3.05;2.10;;;;;;;9.43;87.94;99752.59;5012217;28;20073;-64
2021/11/17 10:34:51;;;;;;;2.78;2.20;;;;;;;9.36;88.22;99748.81;5026571;28;20188;-65
2021/11/17 10:37:39;;;;;;;3.95;2.25;;;;;;;9.35;87.93;99750.56;5013238;28;20096;-64
2021/11/17 10:40:27;;;;;;;2.92;2.05;;;;;;;9.31;88.38;99753.47;5013158;28;20414;-65
2021/11/17 10:43:22;;;;;;;3.58;2.60;;;;;;;9.38;88.70;99752.09;5012031;28;20531;-64
2021/11/17 10:46:11;;;;;;;4.78;2.80;;;;;;;9.46;89.06;99739.47;5012027;28;20128;-64
2021/11/17 10:49:04;;;;;;;3.83;2.78;;;;;;;9.17;89.16;99744.09;5012920;28;20040;-64
2021/11/17 10:52:06;;;;;;;3.13;2.40;;;;;;;9.16;89.21;99745.03;5013050;28;20084;-64
2021/11/17 10:54:53;;;;;;;3.72;2.88;;;;;;;9.23;90.70;99750.59;5011964;28;20140;-65
2021/11/17 10:57:39;;;;;;;3.28;2.53;;;;;;;9.33;87.54;99752.44;5011929;28;20127;-65
2021/11/17 11:00:29;;;;;;;5.18;2.63;;;;;;;9.45;87.41;99758.47;5012810;28;20080;-65
2021/11/17 11:03:16;;;;;;;4.25;3.08;;;;;;;9.24;85.74;99757.41;5013034;28;20052;-65
2021/11/17 11:06:27;;;;;;;5.70;3.03;;;;;;;9.19;85.38;99755.16;4997769;28;20092;-64
2021/11/17 11:09:16;;;;;;;4.03;2.53;;;;;;;9.22;86.78;99756.69;5012061;28;20137;-65
2021/11/17 11:12:01;;;;;;;6.53;2.83;;;;;;;9.23;85.31;99753.19;5012711;28;20171;-64
2021/11/17 11:14:55;;;;;;;5.78;3.28;;;;;;;9.35;85.46;99749.72;5025655;28;20052;-68
2021/11/17 11:18:06;;;;;;;6.00;2.80;;;;;;;9.44;83.82;99755.06;5011444;28;20049;-67
2021/11/17 11:20:53;;;;;;;5.70;3.30;;;;;;;9.39;83.91;99756.34;5012551;28;20145;-67
2021/11/17 11:24:25;;;;;;;4.13;3.03;;;;;;;9.50;85.02;99746.84;5025523;28;20057;-66
2021/11/17 11:27:23;;;;;;;5.20;3.15;;;;;;;9.54;83.84;99757.81;5011650;28;20045;-66
2021/11/17 11:30:34;;;;;;;4.38;2.72;;;;;;;9.61;84.31;99746.94;5012678;28;20578;-67
2021/11/17 11:33:38;;;;;;;5.72;3.33;;;;;;;9.59;83.49;99753.13;5011362;28;20461;-65
2021/11/17 11:36:22;;;;;;;5.03;3.30;;;;;;;9.45;83.96;99742.97;5012791;28;20191;-65
2021/11/17 11:39:06;;;;;;;4.88;3.13;;;;;;;9.27;84.29;99746.88;5012468;28;20053;-66
2021/11/17 11:42:17;;;;;;;4.65;3.22;;;;;;;9.42;85.52;99740.59;5012425;28;20057;-65
2021/11/17 11:45:07;;;;;;;3.22;2.58;;;;;;;9.31;83.86;99749.13;5012584;28;20044;-66
2021/11/17 11:47:54;;;;;;;3.47;2.17;;;;;;;9.15;81.29;99768.41;5012510;28;20052;-66
2021/11/17 11:50:38;;;;;;;4.18;2.67;;;;;;;9.03;82.23;99758.94;5012513;28;20056;-66
2021/11/17 11:53:44;;;;;;;6.05;2.75;;;;;;;9.02;82.60;99752.94;5011363;28;20053;-66
2021/11/17 11:56:40;;;;;;;3.45;2.58;;;;;;;9.01;83.86;99758.22;5014733;28;20056;-66
2021/11/17 11:59:26;;;;;;;3.63;2.42;;;;;;;8.80;84.79;99752.81;5028872;28;20576;-66
2021/11/17 12:02:19;;;;;;;3.92;2.63;;;;;;;8.91;85.60;99755.47;5016070;28;20080;-66
2021/11/17 12:05:06;;;;;;;7.00;2.92;;;;;;;8.98;87.84;99761.03;5028663;28;20563;-66
2021/11/17 12:07:57;;;;;;;3.97;2.63;;;;;;;8.98;83.84;99748.09;5014839;28;20447;-66
2021/11/17 12:10:44;;;;;;;3.25;2.22;;;;;;;8.92;83.64;99746.78;5028624;28;20052;-65
2021/11/17 12:13:32;;;;;;;3.92;2.53;;;;;;;9.05;83.43;99742.41;5014682;28;20053;-66
2021/11/17 12:16:20;;;;;;;3.60;2.38;;;;;;;9.10;82.93;99734.34;5015035;28;20052;-66
2021/11/17 12:19:35;;;;;;;2.92;2.38;;;;;;;8.86;84.22;99733.47;5014120;28;20049;-65
2021/11/17 12:22:37;;;;;;;5.63;2.47;;;;;;;8.69;83.71;99728.66;5015148;28;20053;-65
2021/11/17 12:25:30;;;;;;;4.60;2.40;;;;;;;8.84;83.71;99727.56;5014755;28;20084;-65
2021/11/17 12:28:16;;;;;;;3.72;2.60;;;;;;;8.90;84.99;99737.50;5014899;28;20040;-64
2021/11/17 12:31:07;;;;;;;4.70;2.88;;;;;;;8.86;84.80;99739.47;5028569;28;20131;-65
2021/11/17 12:34:00;;;;;;;4.72;2.97;;;;;;;8.87;84.38;99738.53;5000459;28;20053;-65
2021/11/17 12:37:08;;;;;;;4.47;3.00;;;;;;;8.97;83.57;99718.88;5000606;28;20053;-66
2021/11/17 12:40:00;;;;;;;3.88;3.00;;;;;;;9.38;81.60;99715.94;5014101;28;20048;-66
2021/11/17 12:42:53;;;;;;;2.90;2.60;;;;;;;10.58;72.12;99700.69;5014258;28;20087;-65
2021/11/17 12:46:03;;;;;;;4.82;2.70;;;;;;;12.46;65.44;99698.97;5027940;28;20602;-65
2021/11/17 12:48:55;;;;;;;3.35;2.67;;;;;;;13.64;61.14;99695.41;5014875;28;20084;-66
2021/11/17 12:51:47;;;;;;;3.70;3.05;;;;;;;13.15;59.09;99701.53;5014809;28;20052;-66
2021/11/17 12:54:41;;;;;;;4.43;3.30;;;;;;;12.27;62.38;99713.66;5014175;28;20048;-66
2021/11/17 12:57:29;;;;;;;4.07;3.20;;;;;;;11.05;68.31;99715.91;5013811;28;20136;-63
2021/11/17 13:00:13;;;;;;;3.72;2.97;;;;;;;10.99;70.25;99710.41;5013696;28;20414;-67
2021/11/17 13:03:01;;;;;;;4.07;3.35;;;;;;;11.51;69.71;99703.53;5014766;28;20411;-66
2021/11/17 13:06:18;;;;;;;5.78;4.00;;;;;;;12.08;66.86;99697.97;5013894;28;20056;-65
2021/11/17 13:09:23;;;;;;;5.47;3.30;;;;;;;12.30;62.34;99714.19;5024967;28;20153;-66
2021/11/17 13:12:09;;;;;;;4.53;2.53;;;;;;;11.54;65.49;99718.00;5013579;28;20099;-66
2021/11/17 13:14:57;;;;;;;5.15;3.90;;;;;;;11.63;67.05;99712.09;5014727;28;20044;-66
2021/11/17 13:17:44;;;;;;;4.10;3.03;;;;;;;10.88;69.17;99716.41;5013207;28;20191;-66
2021/11/17 13:20:40;;;;;;;5.55;4.00;;;;;;;10.74;69.81;99726.22;5013434;28;20641;-66
2021/11/17 13:23:31;;;;;;;4.72;3.60;;;;;;;10.88;70.12;99715.59;5013618;28;20083;-66
2021/11/17 13:26:38;;;;;;;4.93;3.55;;;;;;;10.21;71.21;99711.38;4999416;28;20060;-65
2021/11/17 13:29:51;;;;;;;5.70;3.70;;;;;;;10.44;72.55;99734.56;5013356;28;20060;-66
2021/11/17 13:32:38;;;;;;;5.18;3.88;;;;;;;10.82;71.35;99729.03;5010317;28;20091;-66
2021/11/17 13:35:36;;;;;;;5.07;3.80;;;;;;;11.04;70.17;99735.00;5027252;28;20053;-64
2021/11/17 13:38:23;;;;;;;6.55;3.88;;;;;;;10.67;70.24;99725.84;5012939;28;20469;-65
2021/11/17 13:41:09;;;;;;;6.03;3.75;;;;;;;10.48;71.99;99728.22;5014218;28;20506;-66
2021/11/17 13:43:53;;;;;;;7.32;3.60;;;;;;;10.32;72.88;99737.25;5014324;28;20068;-66
2021/11/17 13:47:07;;;;;;;4.22;3.58;;;;;;;10.39;73.30;99731.53;5027351;28;20099;-66
2021/11/17 13:49:53;;;;;;;7.28;3.78;;;;;;;10.17;75.12;99737.56;5013819;28;20470;-66
2021/11/17 13:52:42;;;;;;;5.20;3.40;;;;;;;10.13;76.79;99738.75;5012869;28;20128;-66
2021/11/17 13:55:33;;;;;;;6.07;4.15;;;;;;;10.01;77.53;99734.47;4999118;28;20407;-66
2021/11/17 13:58:17;;;;;;;6.85;3.25;;;;;;;9.79;76.85;99739.59;5026606;28;20411;-66
2021/11/17 14:01:02;;;;;;;6.13;2.90;;;;;;;9.66;76.34;99749.16;5012894;28;20526;-66
2021/11/17 14:03:46;;;;;;;7.15;3.85;;;;;;;10.03;75.26;99750.72;5012931;28;20108;-66
2021/11/17 14:06:30;;;;;;;5.68;4.20;;;;;;;9.99;76.02;99752.69;5012653;28;20056;-67
2021/11/17 14:09:14;;;;;;;4.72;3.55;;;;;;;9.99;76.00;99733.78;5012481;28;20095;-66
2021/11/17 14:11:59;;;;;;;4.47;3.60;;;;;;;10.08;77.05;99738.28;5026570;28;20044;-66
2021/11/17 14:14:44;;;;;;;8.00;4.07;;;;;;;10.36;76.63;99736.91;5026552;28;20358;-67
2021/11/17 14:17:27;;;;;;;5.75;3.85;;;;;;;10.25;75.96;99739.47;5012637;28;20057;-66
2021/11/17 14:20:11;;;;;;;4.90;3.88;;;;;;;10.46;75.42;99737.84;5013576;28;20044;-67
2021/11/17 14:22:55;;;;;;;6.93;3.97;;;;;;;10.39;76.63;99736.69;5012515;28;20108;-65
2021/11/17 14:25:41;;;;;;;5.88;4.00;;;;;;;10.16;76.21;99734.19;5013477;28;20060;-66
2021/11/17 14:28:29;;;;;;;8.02;3.70;;;;;;;9.82;76.64;99741.94;5012344;28;20088;-66
2021/11/17 14:31:27;;;;;;;7.10;4.60;;;;;;;9.85;76.82;99744.28;5013182;28;20517;-66
2021/11/17 14:34:12;;;;;;;6.28;3.88;;;;;;;9.66;77.09;99751.75;4998614;28;20053;-66
2021/11/17 14:37:04;;;;;;;5.47;3.70;;;;;;;9.67;76.63;99761.97;5013834;28;20107;-65
2021/11/17 14:39:48;;;;;;;5.03;3.70;;;;;;;9.69;77.25;99764.47;5012983;28;20103;-62
2021/11/17 14:42:32;;;;;;;5.03;3.67;;;;;;;9.43;78.14;99755.16;4998676;28;20053;-61
2021/11/17 14:45:19;;;;;;;7.40;3.55;;;;;;;9.57;77.96;99767.94;4998765;28;20569;-61
2021/11/17 14:48:04;;;;;;;5.25;3.78;;;;;;;9.51;79.09;99770.94;5012782;28;20056;-64
2021/11/17 14:50:52;;;;;;;7.75;4.22;;;;;;;9.55;79.03;99769.78;5012423;28;20509;-63
2021/11/17 14:53:42;;;;;;;5.30;3.92;;;;;;;9.45;79.20;99766.22;4998182;28;20052;-63
2021/11/17 14:56:26;;;;;;;5.13;3.72;;;;;;;9.47;79.62;99761.78;5012434;28;20059;-66
2021/11/17 14:59:11;;;;;;;5.22;3.63;;;;;;;9.30;81.14;99768.16;5012368;28;20426;-65
2021/11/17 15:01:55;;;;;;;5.30;4.13;;;;;;;9.49;81.17;99772.81;5012014;28;20052;-65
2021/11/17 15:04:39;;;;;;;6.50;4.13;;;;;;;9.37;81.18;99784.03;5026220;28;20153;-64
2021/11/17 15:07:23;;;;;;;5.68;4.03;;;;;;;9.39;81.17;99782.97;5026080;28;20053;-64
2021/11/17 15:10:10;;;;;;;6.28;4.00;;;;;;;9.33;81.97;99782.59;5012240;28;20045;-64
2021/11/17 15:12:54;;;;;;;5.40;4.00;;;;;;;9.29;82.61;99783.75;5012157;28;20100;-66
2021/11/17 15:15:41;;;;;;;5.97;3.63;;;;;;;9.22;82.86;99782.53;5025844;28;20466;-65
2021/11/17 15:18:26;;;;;;;5.68;4.00;;;;;;;9.33;82.73;99782.59;5012064;28;20395;-64
2021/11/17 15:21:13;;;;;;;4.45;3.00;;;;;;;9.26;82.31;99791.72;5011707;28;20191;-64
2021/11/17 15:23:57;;;;;;;4.70;3.80;;;;;;;9.30;82.26;99787.97;5012721;28;20052;-65
2021/11/17 15:26:46;;;;;;;5.53;3.70;;;;;;;9.32;82.52;99792.13;5012947;28;20053;-66
2021/11/17 15:29:30;;;;;;;7.07;3.50;;;;;;;9.32;82.89;99796.44;5014367;28;20053;-65
2021/11/17 15:32:18;;;;;;;4.55;3.35;;;;;;;9.31;83.54;99797.38;5015750;28;20056;-63
2021/11/17 15:35:03;;;;;;;4.85;3.10;;;;;;;9.34;83.81;99802.31;5016661;28;20506;-64
2021/11/17 15:37:49;;;;;;;4.93;3.45;;;;;;;9.23;83.68;99797.94;5016768;28;20053;-64
2021/11/17 15:40:36;;;;;;;5.35;3.45;;;;;;;9.17;84.13;99808.66;5028956;28;20119;-64
2021/11/17 15:43:22;;;;;;;6.90;3.55;;;;;;;9.14;84.66;99802.88;5016290;28;20053;-62
2021/11/17 15:46:06;;;;;;;6.43;3.35;;;;;;;9.02;85.00;99806.34;5028924;28;20049;-65
2021/11/17 15:48:49;;;;;;;4.60;3.65;;;;;;;9.19;85.02;99806.00;5016232;28;20088;-65
2021/11/17 15:51:41;;;;;;;7.38;3.40;;;;;;;9.14;85.44;99813.22;5029100;28;20095;-65
2021/11/17 15:54:25;;;;;;;4.70;3.15;;;;;;;9.15;85.22;99820.06;5028807;28;20092;-65
2021/11/17 15:57:10;;;;;;;4.55;3.10;;;;;;;9.02;85.55;99817.50;5015226;28;20056;-64